Terminal Aerodrome Forecast
Issued by NWS Flagstaff, AZ

Home | Current Version | Previous Version | Text Only | Print | Product List | Glossary On
Versions: 1 2 3 4 5 6 7 8 9 10 11 12 13 14 15 16 17 18 19
000
FTUS45 KFGZ 291754 AAA
TAFFLG
TAF AMD
KFLG 291754Z 2918/3018 27012G19KT P6SM VCSH SCT025 BKN035 BKN040
      TEMPO 2919/2923 -SHRA BKN028
     FM300130 VRB03KT P6SM SCT035 BKN060
     FM301400 22007KT P6SM SCT030 BKN040 PROB30 3014/3018 -SHRA
      OVC030=

USA.gov is the U.S. government's official web portal to all federal, state and local government web resources and services.